createdAt,value
2022-10-23T00:01:17.562Z,11.68
2022-10-23T00:03:44.707Z,11.66
2022-10-23T00:06:13.175Z,11.68
2022-10-23T00:08:40.992Z,11.70
2022-10-23T00:11:14.734Z,11.72
2022-10-23T00:13:41.421Z,11.79
2022-10-23T00:16:09.380Z,11.88
2022-10-23T00:18:38.574Z,11.93
2022-10-23T00:21:07.327Z,11.98
2022-10-23T00:23:34.054Z,12.04
2022-10-23T00:26:00.829Z,12.07
2022-10-23T00:28:27.360Z,12.08
2022-10-23T00:30:54.162Z,12.07
2022-10-23T00:33:20.854Z,12.04
2022-10-23T00:35:47.344Z,12.03
2022-10-23T00:38:13.988Z,12.01
2022-10-23T00:40:40.666Z,12.04
2022-10-23T00:43:07.783Z,12.05
2022-10-23T00:45:34.732Z,12.06
2022-10-23T00:48:03.004Z,12.09
2022-10-23T00:50:33.054Z,12.10
2022-10-23T00:53:03.351Z,12.13
2022-10-23T00:55:30.915Z,12.22
2022-10-23T00:57:57.538Z,12.24
2022-10-23T01:00:28.046Z,12.31
2022-10-23T01:02:56.574Z,12.34
2022-10-23T01:05:29.906Z,12.36
2022-10-23T01:08:02.884Z,12.38
2022-10-23T01:10:40.058Z,12.39
2022-10-23T01:13:15.092Z,12.42
2022-10-23T01:15:52.898Z,12.41
2022-10-23T01:18:56.867Z,12.41
2022-10-23T01:21:34.724Z,12.44
2022-10-23T01:24:01.192Z,12.45
2022-10-23T01:26:43.057Z,12.45
2022-10-23T01:29:29.670Z,12.46
2022-10-23T01:32:11.439Z,12.46
2022-10-23T01:34:47.126Z,12.46
2022-10-23T01:37:20.053Z,12.45
2022-10-23T01:39:52.282Z,12.42
2022-10-23T01:42:24.038Z,12.39
2022-10-23T01:45:01.347Z,12.37
2022-10-23T01:47:33.822Z,12.34
2022-10-23T01:50:03.157Z,12.33
2022-10-23T01:52:30.590Z,12.32
2022-10-23T01:55:00.767Z,12.31
2022-10-23T01:57:31.558Z,12.33
2022-10-23T02:00:13.258Z,12.36
2022-10-23T02:02:42.008Z,12.37
2022-10-23T02:05:15.034Z,12.38
2022-10-23T02:07:41.775Z,12.42
2022-10-23T02:10:09.979Z,12.47
2022-10-23T02:12:45.613Z,12.51
2022-10-23T02:15:23.010Z,12.55
2022-10-23T02:18:13.170Z,12.58
2022-10-23T02:20:46.416Z,12.62
2022-10-23T02:23:21.660Z,12.66
2022-10-23T02:26:00.703Z,12.67
2022-10-23T02:28:35.148Z,12.67
2022-10-23T02:31:04.626Z,12.69
2022-10-23T02:33:32.851Z,12.70
2022-10-23T02:35:59.440Z,12.69
2022-10-23T02:38:29.871Z,12.69
2022-10-23T02:41:03.318Z,12.70
2022-10-23T02:43:41.491Z,12.71
2022-10-23T02:46:11.078Z,12.69
2022-10-23T02:48:44.830Z,12.70
2022-10-23T02:51:29.988Z,12.69
2022-10-23T02:54:02.502Z,12.67
2022-10-23T02:56:56.555Z,12.67
2022-10-23T02:59:37.227Z,12.67
2022-10-23T03:02:22.869Z,12.66
2022-10-23T03:04:51.003Z,12.65
2022-10-23T03:07:19.990Z,12.64
2022-10-23T03:09:46.665Z,12.61
2022-10-23T03:12:13.172Z,12.56
2022-10-23T03:14:39.589Z,12.52
2022-10-23T03:17:06.192Z,12.46
2022-10-23T03:19:32.697Z,12.39
2022-10-23T03:21:59.235Z,12.31
2022-10-23T03:24:25.878Z,12.25
2022-10-23T03:26:52.319Z,12.20
2022-10-23T03:29:18.957Z,12.15
2022-10-23T03:31:45.449Z,12.13
2022-10-23T03:34:11.915Z,12.12
2022-10-23T03:36:38.389Z,12.10
2022-10-23T03:39:05.290Z,12.06
2022-10-23T03:41:32.385Z,11.99
2022-10-23T03:43:58.917Z,11.85
2022-10-23T03:46:25.879Z,11.72
2022-10-23T03:48:52.334Z,11.59
2022-10-23T03:51:18.975Z,11.48
2022-10-23T03:53:45.405Z,11.39
2022-10-23T03:56:11.859Z,11.32
2022-10-23T03:58:38.319Z,11.27
2022-10-23T04:01:04.849Z,11.21
2022-10-23T04:03:31.428Z,11.14
2022-10-23T04:05:57.887Z,11.06
2022-10-23T04:08:24.375Z,10.98
2022-10-23T04:10:50.830Z,10.90
2022-10-23T04:13:17.508Z,10.82
2022-10-23T04:15:51.474Z,10.72
2022-10-23T04:18:18.376Z,10.63
2022-10-23T04:20:48.291Z,10.54
2022-10-23T04:23:15.962Z,10.48
2022-10-23T04:25:42.632Z,10.43
2022-10-23T04:28:09.753Z,10.39
2022-10-23T04:30:36.294Z,10.35
2022-10-23T04:33:02.968Z,10.32
2022-10-23T04:35:29.415Z,10.29
2022-10-23T04:37:56.021Z,10.26
2022-10-23T04:40:22.557Z,10.24
2022-10-23T04:42:49.098Z,10.21
2022-10-23T04:45:15.747Z,10.17
2022-10-23T04:47:42.183Z,10.12
2022-10-23T04:50:08.722Z,10.08
2022-10-23T04:52:35.265Z,10.02
2022-10-23T04:55:01.806Z,9.96
2022-10-23T04:57:28.349Z,9.91
2022-10-23T04:59:54.891Z,9.91
2022-10-23T05:02:21.427Z,9.91
2022-10-23T05:04:47.992Z,9.90
2022-10-23T05:07:14.574Z,9.86
2022-10-23T05:09:41.220Z,9.80
2022-10-23T05:12:07.648Z,9.73
2022-10-23T05:14:34.090Z,9.69
2022-10-23T05:17:04.264Z,9.66
2022-10-23T05:19:38.170Z,9.63
2022-10-23T05:22:05.417Z,9.60
2022-10-23T05:24:31.966Z,9.62
2022-10-23T05:26:58.505Z,9.68
2022-10-23T05:29:24.954Z,9.70
2022-10-23T05:31:57.626Z,9.68
2022-10-23T05:34:27.594Z,9.67
2022-10-23T05:36:55.179Z,9.65
2022-10-23T05:39:22.072Z,9.64
2022-10-23T05:41:48.512Z,9.68
2022-10-23T05:44:15.040Z,9.73
2022-10-23T05:46:42.601Z,9.74
2022-10-23T05:49:09.655Z,9.78
2022-10-23T05:51:37.239Z,9.79
2022-10-23T05:54:04.376Z,9.76
2022-10-23T05:56:30.954Z,9.75
2022-10-23T05:58:57.368Z,9.76
2022-10-23T06:01:24.010Z,9.78
2022-10-23T06:03:50.745Z,9.80
2022-10-23T06:06:17.388Z,9.82
2022-10-23T06:08:43.931Z,9.85
2022-10-23T06:11:13.285Z,9.89
2022-10-23T06:13:42.381Z,9.93
2022-10-23T06:16:13.688Z,9.93
2022-10-23T06:18:40.366Z,9.92
2022-10-23T06:21:07.386Z,9.91
2022-10-23T06:23:36.612Z,9.92
2022-10-23T06:26:04.166Z,9.97
2022-10-23T06:28:30.799Z,10.06
2022-10-23T06:30:57.292Z,10.14
2022-10-23T06:33:24.187Z,10.27
2022-10-23T06:35:50.680Z,10.49
2022-10-23T06:38:17.165Z,10.71
2022-10-23T06:40:43.605Z,11.02
2022-10-23T06:43:10.057Z,11.32
2022-10-23T06:45:36.660Z,11.61
2022-10-23T06:48:03.331Z,11.93
2022-10-23T06:50:29.875Z,12.24
2022-10-23T06:52:56.675Z,12.52
2022-10-23T06:55:23.132Z,12.81
2022-10-23T06:57:50.515Z,13.14
2022-10-23T07:00:17.230Z,13.52
2022-10-23T07:02:44.045Z,13.85
2022-10-23T07:05:13.531Z,14.23
2022-10-23T07:07:40.776Z,14.62
2022-10-23T07:10:07.999Z,14.93
2022-10-23T07:12:34.584Z,15.24
2022-10-23T07:15:01.130Z,15.62
2022-10-23T07:17:29.200Z,15.98
2022-10-23T07:19:55.742Z,16.35
2022-10-23T07:22:22.309Z,16.59
2022-10-23T07:24:48.730Z,16.63
2022-10-23T07:27:15.361Z,16.65
2022-10-23T07:29:41.865Z,16.79
2022-10-23T07:32:08.284Z,16.93
2022-10-23T07:34:34.739Z,17.00
2022-10-23T07:37:01.165Z,17.01
2022-10-23T07:39:27.656Z,17.10
2022-10-23T07:41:54.200Z,17.15
2022-10-23T07:44:22.095Z,17.22
2022-10-23T07:46:50.931Z,17.30
2022-10-23T07:49:17.355Z,17.33
2022-10-23T07:51:47.476Z,17.22
2022-10-23T07:54:16.945Z,17.11
2022-10-23T07:56:43.484Z,17.02
2022-10-23T07:59:13.529Z,16.90
2022-10-23T08:01:41.095Z,16.91
2022-10-23T08:04:10.068Z,16.97
2022-10-23T08:06:36.608Z,17.11
2022-10-23T08:09:06.473Z,17.30
2022-10-23T08:11:34.316Z,17.40
2022-10-23T08:14:02.277Z,17.55
2022-10-23T08:16:28.793Z,17.69
2022-10-23T08:18:55.461Z,17.84
2022-10-23T08:21:22.103Z,17.93
2022-10-23T08:23:49.161Z,18.04
2022-10-23T08:26:16.004Z,18.14
2022-10-23T08:28:42.547Z,18.38
2022-10-23T08:31:12.055Z,18.60
2022-10-23T08:33:39.624Z,18.79
2022-10-23T08:36:15.272Z,18.99
2022-10-23T08:38:41.815Z,19.19
2022-10-23T08:41:24.293Z,19.01
2022-10-23T08:43:58.350Z,18.88
2022-10-23T08:46:30.209Z,19.06
2022-10-23T08:49:39.347Z,19.19
2022-10-23T08:52:22.071Z,19.46
2022-10-23T08:55:22.867Z,19.78
2022-10-23T08:58:03.886Z,20.05
2022-10-23T09:00:30.736Z,20.14
2022-10-23T09:03:00.577Z,20.25
2022-10-23T09:06:04.463Z,20.29
2022-10-23T09:08:45.140Z,20.49
2022-10-23T09:11:15.671Z,20.65
2022-10-23T09:14:07.912Z,20.83
2022-10-23T09:19:50.267Z,21.27
2022-10-23T09:22:16.787Z,21.32
2022-10-23T09:24:43.829Z,21.48
2022-10-23T09:27:16.318Z,21.58
2022-10-23T09:29:51.832Z,21.57
2022-10-23T09:32:19.536Z,21.05
2022-10-23T09:34:55.538Z,20.81
2022-10-23T09:37:30.682Z,20.99
2022-10-23T09:40:22.071Z,21.09
2022-10-23T09:42:55.197Z,21.00
2022-10-23T09:45:27.946Z,20.89
2022-10-23T09:48:23.970Z,20.86
2022-10-23T09:50:57.141Z,21.03
2022-10-23T09:53:29.182Z,21.15
2022-10-23T09:55:58.882Z,21.11
2022-10-23T09:58:33.392Z,21.17
2022-10-23T10:01:00.125Z,21.33
2022-10-23T10:03:26.888Z,21.52
2022-10-23T10:06:01.855Z,21.55
2022-10-23T10:08:52.007Z,21.55
2022-10-23T10:11:54.192Z,21.41
2022-10-23T10:14:42.539Z,21.35
2022-10-23T10:17:31.198Z,21.22
2022-10-23T10:20:06.766Z,21.07
2022-10-23T10:22:56.259Z,20.94
2022-10-23T10:25:52.228Z,20.85
2022-10-23T10:28:31.805Z,20.70
2022-10-23T10:31:01.366Z,20.63
2022-10-23T10:33:41.090Z,20.68
2022-10-23T10:36:41.961Z,20.54
2022-10-23T10:39:45.257Z,20.29
2022-10-23T10:42:31.010Z,20.21
2022-10-23T10:45:19.354Z,20.24
2022-10-23T10:48:12.184Z,20.32
2022-10-23T10:50:54.462Z,20.48
2022-10-23T10:53:28.683Z,20.48
2022-10-23T10:55:59.381Z,20.50
2022-10-23T10:58:40.405Z,20.54
2022-10-23T11:01:23.161Z,20.58
2022-10-23T11:03:55.454Z,20.57
2022-10-23T11:06:27.293Z,20.62
2022-10-23T11:09:09.259Z,20.62
2022-10-23T11:11:40.847Z,20.60
2022-10-23T11:14:18.373Z,20.58
2022-10-23T11:16:54.938Z,20.69
2022-10-23T11:19:35.416Z,20.72
2022-10-23T11:22:23.664Z,20.66
2022-10-23T11:25:09.047Z,20.73
2022-10-23T11:27:49.617Z,20.66
2022-10-23T11:30:41.164Z,20.54
2022-10-23T11:33:25.775Z,20.65
2022-10-23T11:36:13.274Z,20.73
2022-10-23T11:38:42.329Z,20.72
2022-10-23T11:41:23.655Z,20.56
2022-10-23T11:43:58.780Z,20.66
2022-10-23T11:46:25.217Z,20.72
2022-10-23T11:48:53.631Z,20.69
2022-10-23T11:51:33.657Z,20.75
2022-10-23T11:54:12.284Z,20.87
2022-10-23T11:56:50.900Z,20.97
2022-10-23T11:59:27.811Z,21.03
2022-10-23T12:01:56.074Z,20.94
2022-10-23T12:04:28.038Z,20.93
2022-10-23T12:07:00.772Z,20.99
2022-10-23T12:09:30.234Z,21.05
2022-10-23T12:12:08.965Z,21.12
2022-10-23T12:14:38.686Z,21.19
2022-10-23T12:17:23.861Z,21.28
2022-10-23T12:19:53.593Z,21.31
2022-10-23T12:22:24.485Z,21.37
2022-10-23T12:25:13.383Z,21.36
2022-10-23T12:28:01.540Z,21.40
2022-10-23T12:30:39.651Z,21.43
2022-10-23T12:33:20.004Z,21.37
2022-10-23T12:36:06.412Z,21.28
2022-10-23T12:38:35.566Z,21.19
2022-10-23T12:41:13.113Z,21.08
2022-10-23T12:43:40.884Z,21.03
2022-10-23T12:46:30.977Z,20.99
2022-10-23T12:48:59.360Z,20.92
2022-10-23T12:51:28.889Z,20.79
2022-10-23T12:53:55.823Z,20.69
2022-10-23T12:56:22.777Z,20.71
2022-10-23T12:58:52.587Z,20.73
2022-10-23T13:01:31.786Z,20.77
2022-10-23T13:04:10.824Z,20.91
2022-10-23T13:06:39.996Z,21.05
2022-10-23T13:09:15.414Z,21.21
2022-10-23T13:11:42.602Z,21.21
2022-10-23T13:14:13.737Z,21.25
2022-10-23T13:16:40.363Z,21.38
2022-10-23T13:19:06.916Z,21.45
2022-10-23T13:21:33.355Z,21.40
2022-10-23T13:23:59.886Z,21.31
2022-10-23T13:26:39.529Z,21.40
2022-10-23T13:29:20.645Z,21.35
2022-10-23T13:31:47.593Z,21.12
2022-10-23T13:34:58.150Z,20.98
2022-10-23T13:37:37.107Z,20.85
2022-10-23T13:40:07.025Z,20.71
2022-10-23T13:42:33.655Z,20.64
2022-10-23T13:45:00.094Z,20.62
2022-10-23T13:47:26.806Z,20.68
2022-10-23T13:49:53.451Z,20.62
2022-10-23T13:52:22.553Z,20.53
2022-10-23T13:54:49.510Z,20.44
2022-10-23T13:57:16.566Z,20.33
2022-10-23T13:59:43.408Z,20.19
2022-10-23T14:02:23.583Z,20.06
2022-10-23T14:04:51.536Z,19.96
2022-10-23T14:07:18.609Z,19.92
2022-10-23T14:09:45.439Z,19.91
2022-10-23T14:12:11.980Z,19.93
2022-10-23T14:14:38.522Z,19.95
2022-10-23T14:17:05.170Z,19.95
2022-10-23T14:19:33.752Z,19.96
2022-10-23T14:22:00.299Z,20.04
2022-10-23T14:24:26.941Z,20.13
2022-10-23T14:26:53.584Z,20.08
2022-10-23T14:29:24.171Z,19.99
2022-10-23T14:31:51.216Z,19.87
2022-10-23T14:34:18.320Z,19.75
2022-10-23T14:36:50.305Z,19.69
2022-10-23T14:39:18.335Z,19.60
2022-10-23T14:41:44.801Z,19.49
2022-10-23T14:44:11.357Z,19.41
2022-10-23T14:46:37.858Z,19.31
2022-10-23T14:49:04.420Z,19.20
2022-10-23T14:51:31.063Z,19.09
2022-10-23T14:54:00.189Z,18.98
2022-10-23T14:56:27.417Z,18.87
2022-10-23T14:58:54.470Z,18.72
2022-10-23T15:01:21.070Z,18.55
2022-10-23T15:03:47.588Z,18.44
2022-10-23T15:06:17.607Z,18.35
2022-10-23T15:08:45.026Z,18.22
2022-10-23T15:11:12.671Z,17.97
2022-10-23T15:13:39.336Z,17.52
2022-10-23T15:16:08.259Z,17.10
2022-10-23T15:18:35.821Z,16.79
2022-10-23T15:21:03.875Z,16.55
2022-10-23T15:23:30.404Z,16.31
2022-10-23T15:25:59.332Z,16.07
2022-10-23T15:28:28.914Z,15.82
2022-10-23T15:30:55.760Z,15.55
2022-10-23T15:33:23.839Z,15.29
2022-10-23T15:35:51.504Z,15.04
2022-10-23T15:38:18.570Z,14.81
2022-10-23T15:40:45.303Z,14.59
2022-10-23T15:43:15.940Z,14.43
2022-10-23T15:45:43.104Z,14.28
2022-10-23T15:48:09.783Z,14.12
2022-10-23T15:50:36.989Z,13.97
2022-10-23T15:53:03.839Z,13.81
2022-10-23T15:55:30.475Z,13.63
2022-10-23T15:57:57.140Z,13.46
2022-10-23T16:00:23.716Z,13.31
2022-10-23T16:02:50.280Z,13.20
2022-10-23T16:05:16.732Z,13.07
2022-10-23T16:07:43.288Z,12.95
2022-10-23T16:10:10.119Z,12.82
2022-10-23T16:12:36.657Z,12.70
2022-10-23T16:15:03.500Z,12.58
2022-10-23T16:17:29.946Z,12.47
2022-10-23T16:19:56.409Z,12.39
2022-10-23T16:22:22.879Z,12.31
2022-10-23T16:24:49.473Z,12.22
2022-10-23T16:27:16.092Z,12.14
2022-10-23T16:29:42.777Z,12.05
2022-10-23T16:32:09.275Z,11.94
2022-10-23T16:34:35.718Z,11.84
2022-10-23T16:37:02.895Z,11.75
2022-10-23T16:39:29.375Z,11.65
2022-10-23T16:41:55.823Z,11.55
2022-10-23T16:44:22.322Z,11.46
2022-10-23T16:46:48.747Z,11.38
2022-10-23T16:49:15.255Z,11.30
2022-10-23T16:51:41.792Z,11.21
2022-10-23T16:54:09.571Z,11.13
2022-10-23T16:56:36.207Z,11.05
2022-10-23T16:59:02.748Z,10.97
2022-10-23T17:01:31.393Z,10.90
2022-10-23T17:03:58.073Z,10.81
2022-10-23T17:06:31.911Z,10.75
2022-10-23T17:08:59.957Z,10.73
2022-10-23T17:11:32.337Z,10.66
2022-10-23T17:14:14.456Z,10.61
2022-10-23T17:16:48.693Z,10.54
2022-10-23T17:19:33.083Z,10.45
2022-10-23T17:22:05.470Z,10.36
2022-10-23T17:24:31.939Z,10.31
2022-10-23T17:26:58.378Z,10.22
2022-10-23T17:29:24.919Z,10.13
2022-10-23T17:31:51.867Z,10.06
2022-10-23T17:34:20.890Z,9.98
2022-10-23T17:36:50.413Z,9.90
2022-10-23T17:39:20.407Z,9.88
2022-10-23T17:41:47.972Z,9.87
2022-10-23T17:44:14.918Z,9.82
2022-10-23T17:46:41.667Z,9.74
2022-10-23T17:49:08.307Z,9.68
2022-10-23T17:51:35.973Z,9.62
2022-10-23T17:54:06.818Z,9.55
2022-10-23T17:56:34.999Z,9.51
2022-10-23T17:59:08.679Z,9.47
2022-10-23T18:01:35.600Z,9.42
2022-10-23T18:04:05.604Z,9.35
2022-10-23T18:06:36.053Z,9.27
2022-10-23T18:09:07.066Z,9.20
2022-10-23T18:11:36.556Z,9.11
2022-10-23T18:14:05.658Z,9.03
2022-10-23T18:16:34.145Z,8.94
2022-10-23T18:19:03.152Z,8.87
2022-10-23T18:21:30.501Z,8.83
2022-10-23T18:23:59.610Z,8.79
2022-10-23T18:26:28.508Z,8.73
2022-10-23T18:28:57.523Z,8.69
2022-10-23T18:31:26.386Z,8.67
2022-10-23T18:33:58.098Z,8.71
2022-10-23T18:36:27.992Z,8.71
2022-10-23T18:41:22.374Z,8.64
2022-10-23T18:43:49.940Z,8.62
2022-10-23T18:46:17.525Z,8.58
2022-10-23T18:48:44.859Z,8.54
2022-10-23T18:51:16.072Z,8.51
2022-10-23T18:53:43.060Z,8.49
2022-10-23T18:56:09.517Z,8.49
2022-10-23T18:58:37.274Z,8.44
2022-10-23T19:01:04.531Z,8.39
2022-10-23T19:03:31.147Z,8.33
2022-10-23T19:05:59.924Z,8.28
2022-10-23T19:08:26.633Z,8.22
2022-10-23T19:10:53.856Z,8.17
2022-10-23T19:13:20.706Z,8.16
2022-10-23T19:15:47.342Z,8.12
2022-10-23T19:18:13.965Z,8.09
2022-10-23T19:20:43.642Z,8.05
2022-10-23T19:23:12.798Z,8.01
2022-10-23T19:25:44.157Z,8.02
2022-10-23T19:28:11.107Z,8.03
2022-10-23T19:30:39.698Z,8.05
2022-10-23T19:33:06.237Z,8.04
2022-10-23T19:35:32.976Z,8.01
2022-10-23T19:37:59.514Z,7.95
2022-10-23T19:40:26.052Z,7.89
2022-10-23T19:42:52.494Z,7.84
2022-10-23T19:45:19.164Z,7.79
2022-10-23T19:47:46.252Z,7.74
2022-10-23T19:50:13.200Z,7.70
2022-10-23T19:52:39.979Z,7.68
2022-10-23T19:55:07.330Z,7.66
2022-10-23T19:57:33.986Z,7.63
2022-10-23T20:00:01.450Z,7.63
2022-10-23T20:02:28.854Z,7.62
2022-10-23T20:04:55.446Z,7.59
2022-10-23T20:07:21.884Z,7.55
2022-10-23T20:09:48.421Z,7.52
2022-10-23T20:12:14.964Z,7.48
2022-10-23T20:14:41.503Z,7.48
2022-10-23T20:17:08.045Z,7.48
2022-10-23T20:19:34.479Z,7.46
2022-10-23T20:22:00.934Z,7.44
2022-10-23T20:24:27.443Z,7.40
2022-10-23T20:26:55.562Z,7.37
2022-10-23T20:29:23.309Z,7.39
2022-10-23T20:31:49.974Z,7.42
2022-10-23T20:34:16.795Z,7.43
2022-10-23T20:36:46.942Z,7.42
2022-10-23T20:39:20.668Z,7.41
2022-10-23T20:41:47.783Z,7.40
2022-10-23T20:46:44.985Z,7.33
2022-10-23T20:49:13.040Z,7.31
2022-10-23T20:51:39.872Z,7.29
2022-10-23T20:54:06.414Z,7.25
2022-10-23T20:56:35.920Z,7.23
2022-10-23T20:59:05.850Z,7.21
2022-10-23T21:01:33.811Z,7.17
2022-10-23T21:04:02.361Z,7.13
2022-10-23T21:06:45.432Z,7.10
2022-10-23T21:09:17.717Z,7.10
2022-10-23T21:11:44.186Z,7.08
2022-10-23T21:14:10.654Z,7.04
2022-10-23T21:16:39.342Z,7.02
2022-10-23T21:19:05.807Z,7.09
2022-10-23T21:21:32.457Z,7.14
2022-10-23T21:23:59.943Z,7.17
2022-10-23T21:26:29.118Z,7.18
2022-10-23T21:29:16.901Z,7.16
2022-10-23T21:31:42.573Z,7.13
2022-10-23T21:36:54.155Z,7.08
2022-10-23T21:39:29.022Z,7.05
2022-10-23T21:41:55.561Z,7.00
2022-10-23T21:44:22.264Z,6.97
2022-10-23T21:46:48.744Z,6.95
2022-10-23T21:49:15.383Z,6.92
2022-10-23T21:51:41.925Z,6.92
2022-10-23T21:54:12.561Z,6.93
2022-10-23T21:56:42.429Z,6.95
2022-10-23T21:59:11.583Z,6.93
2022-10-23T22:01:42.440Z,6.89
2022-10-23T22:04:09.991Z,6.84
2022-10-23T22:06:38.478Z,6.79
2022-10-23T22:09:06.289Z,6.75
2022-10-23T22:11:33.301Z,6.72
2022-10-23T22:14:00.778Z,6.69
2022-10-23T22:16:27.922Z,6.65
2022-10-23T22:18:54.581Z,6.67
2022-10-23T22:21:25.018Z,6.67
2022-10-23T22:23:54.703Z,6.65
2022-10-23T22:26:35.890Z,6.61
2022-10-23T22:29:06.768Z,6.55
2022-10-23T22:31:35.040Z,6.48
2022-10-23T22:34:13.284Z,6.45
2022-10-23T22:36:51.039Z,6.41
2022-10-23T22:39:17.461Z,6.36
2022-10-23T22:41:44.335Z,6.34
2022-10-23T22:44:12.098Z,6.35
2022-10-23T22:46:38.944Z,6.38
2022-10-23T22:51:37.350Z,6.43
2022-10-23T22:54:03.854Z,6.43
2022-10-23T22:56:30.834Z,6.41
2022-10-23T22:58:58.293Z,6.42
2022-10-23T23:01:38.875Z,6.42
2022-10-23T23:04:14.085Z,6.43
2022-10-23T23:06:52.143Z,6.47
2022-10-23T23:09:18.667Z,6.48
2022-10-23T23:11:52.170Z,6.48
2022-10-23T23:14:23.391Z,6.52
2022-10-23T23:16:52.953Z,6.53
2022-10-23T23:19:19.922Z,6.52
2022-10-23T23:21:46.568Z,6.53
2022-10-23T23:24:13.034Z,6.52
2022-10-23T23:26:40.096Z,6.52
2022-10-23T23:29:06.650Z,6.51
2022-10-23T23:31:33.190Z,6.50
2022-10-23T23:33:59.685Z,6.48
2022-10-23T23:36:28.221Z,6.47
2022-10-23T23:38:56.494Z,6.48
2022-10-23T23:41:23.970Z,6.46
2022-10-23T23:43:50.915Z,6.44
2022-10-23T23:46:17.882Z,6.43
2022-10-23T23:48:44.951Z,6.40
2022-10-23T23:51:11.410Z,6.38
2022-10-23T23:53:37.963Z,6.36
2022-10-23T23:56:05.055Z,6.36
2022-10-23T23:58:31.671Z,6.35
